Time;durP1;ratioP1;P1;durP2;ratioP2;P2;SDS_P1;SDS_P2;PMS_P1;PMS_P2;Temp;Humidity;BMP_temperature;BMP_pressure;BME280_temperature;BME280_humidity;BME280_pressure;Samples;Min_cycle;Max_cycle;Signal;HPM_P1;HPM_P2
2024/01/19 00:01:33;;;;;;;6.63;6.03;;;;;;;;;;4962432;28;20249;-85
2024/01/19 00:03:59;;;;;;;6.93;5.07;;;;;;;;;;4980695;28;20582;-88
2024/01/19 00:06:25;;;;;;;13.37;5.63;;;;;;;;;;4974905;28;20290;-87
2024/01/19 00:08:50;;;;;;;9.33;5.27;;;;;;;;;;4973461;28;20234;-86
2024/01/19 00:11:18;;;;;;;8.40;5.07;;;;;;;;;;4951415;28;20227;-87
2024/01/19 00:13:43;;;;;;;6.40;4.53;;;;;;;;;;4957121;28;20655;-87
2024/01/19 00:16:11;;;;;;;8.00;5.00;;;;;;;;;;4942942;28;20684;-85
2024/01/19 00:18:39;;;;;;;10.20;4.97;;;;;;;;;;4947616;28;20228;-87
2024/01/19 00:21:07;;;;;;;10.17;4.93;;;;;;;;;;4947501;28;20252;-87
2024/01/19 00:23:35;;;;;;;5.67;4.90;;;;;;;;;;4970371;28;20256;-87
2024/01/19 00:26:02;;;;;;;5.70;4.70;;;;;;;;;;4944148;28;20226;-86
2024/01/19 00:28:28;;;;;;;5.13;4.60;;;;;;;;;;4938975;28;20252;-86
2024/01/19 00:30:56;;;;;;;6.50;5.20;;;;;;;;;;4938977;29;20226;-87
2024/01/19 00:33:24;;;;;;;6.57;4.43;;;;;;;;;;4959359;28;20251;-86
2024/01/19 00:35:51;;;;;;;7.27;4.27;;;;;;;;;;4972154;28;20240;-87
2024/01/19 00:38:20;;;;;;;11.17;5.27;;;;;;;;;;4958981;28;20233;-85
2024/01/19 00:40:48;;;;;;;6.17;4.47;;;;;;;;;;4948181;28;20230;-86
2024/01/19 00:43:15;;;;;;;5.07;4.27;;;;;;;;;;4952507;28;20756;-86
2024/01/19 00:45:41;;;;;;;7.40;4.40;;;;;;;;;;4954196;28;20224;-82
2024/01/19 00:48:07;;;;;;;5.23;4.53;;;;;;;;;;4935131;28;20257;-85
2024/01/19 00:50:32;;;;;;;5.03;4.53;;;;;;;;;;4963827;28;20226;-87
2024/01/19 00:52:58;;;;;;;6.67;4.80;;;;;;;;;;4963713;28;20233;-85
2024/01/19 00:55:25;;;;;;;4.63;4.07;;;;;;;;;;4945214;28;20219;-88
2024/01/19 00:57:53;;;;;;;5.63;4.67;;;;;;;;;;4934143;28;20278;-86
2024/01/19 01:00:19;;;;;;;7.50;4.83;;;;;;;;;;4958441;28;20233;-87
2024/01/19 01:02:57;;;;;;;6.87;4.60;;;;;;;;;;4940947;28;20219;-85
2024/01/19 01:05:22;;;;;;;5.87;4.70;;;;;;;;;;4977963;28;20308;-85
2024/01/19 01:07:48;;;;;;;4.60;4.00;;;;;;;;;;4963355;28;20222;-88
2024/01/19 01:10:13;;;;;;;6.27;4.90;;;;;;;;;;4955279;28;20230;-86
2024/01/19 01:12:41;;;;;;;5.57;5.07;;;;;;;;;;4957516;28;20237;-85
2024/01/19 01:15:12;;;;;;;7.23;5.17;;;;;;;;;;4965445;28;20313;-88
2024/01/19 01:17:38;;;;;;;6.63;4.93;;;;;;;;;;4960827;28;20234;-88
2024/01/19 01:20:04;;;;;;;5.30;4.17;;;;;;;;;;4975648;28;20245;-88
2024/01/19 01:22:32;;;;;;;7.43;4.40;;;;;;;;;;4948209;28;20230;-83
2024/01/19 01:24:58;;;;;;;5.17;4.10;;;;;;;;;;4975487;28;20234;-82
2024/01/19 01:27:23;;;;;;;4.87;3.90;;;;;;;;;;4957605;28;20230;-84
2024/01/19 01:29:49;;;;;;;6.30;5.60;;;;;;;;;;4975259;28;20901;-84
2024/01/19 01:32:17;;;;;;;7.77;4.57;;;;;;;;;;4957561;28;20222;-86
2024/01/19 01:34:43;;;;;;;6.27;4.20;;;;;;;;;;4972287;28;20226;-82
2024/01/19 01:37:08;;;;;;;9.33;4.10;;;;;;;;;;4956280;28;20222;-87
2024/01/19 01:39:36;;;;;;;6.47;5.03;;;;;;;;;;4949970;28;20269;-87
2024/01/19 01:42:09;;;;;;;7.10;5.90;;;;;;;;;;4955753;28;20290;-88
2024/01/19 01:44:35;;;;;;;6.77;5.83;;;;;;;;;;4964366;28;20245;-85
2024/01/19 01:47:03;;;;;;;22.03;11.80;;;;;;;;;;4980958;28;20218;-85
2024/01/19 01:49:33;;;;;;;17.63;10.80;;;;;;;;;;4964852;28;20230;-88
2024/01/19 01:52:03;;;;;;;25.23;13.27;;;;;;;;;;4973401;28;20230;-87
2024/01/19 01:54:31;;;;;;;26.17;15.10;;;;;;;;;;4974525;28;20226;-86
2024/01/19 01:56:57;;;;;;;27.47;14.30;;;;;;;;;;4973236;28;20250;-87
2024/01/19 01:59:22;;;;;;;31.90;16.37;;;;;;;;;;4987569;28;21305;-86
2024/01/19 02:01:48;;;;;;;40.97;21.33;;;;;;;;;;4988418;28;20214;-87
2024/01/19 02:04:15;;;;;;;44.83;21.07;;;;;;;;;;4960958;28;20586;-87
2024/01/19 02:06:41;;;;;;;31.60;14.07;;;;;;;;;;4972630;28;20618;-87
2024/01/19 02:09:09;;;;;;;54.80;22.03;;;;;;;;;;4957642;28;20223;-88
2024/01/19 02:11:35;;;;;;;51.47;21.40;;;;;;;;;;4960754;28;20324;-85
2024/01/19 02:14:03;;;;;;;42.57;19.23;;;;;;;;;;4952529;29;20347;-86
2024/01/19 02:16:28;;;;;;;15.20;7.13;;;;;;;;;;4962159;28;20297;-85
2024/01/19 02:18:54;;;;;;;105.30;45.67;;;;;;;;;;4949757;28;20223;-87
2024/01/19 02:21:22;;;;;;;20.67;9.53;;;;;;;;;;4979107;28;20223;-84
2024/01/19 02:24:02;;;;;;;16.60;10.10;;;;;;;;;;4954873;28;20227;-84
2024/01/19 02:26:31;;;;;;;33.93;17.97;;;;;;;;;;4953903;28;20273;-85
2024/01/19 02:28:56;;;;;;;53.03;25.20;;;;;;;;;;4953244;28;20257;-88
2024/01/19 02:31:24;;;;;;;52.07;24.97;;;;;;;;;;4968461;28;20234;-88
2024/01/19 02:33:52;;;;;;;64.33;33.10;;;;;;;;;;4983984;28;20237;-87
2024/01/19 02:36:18;;;;;;;29.80;16.33;;;;;;;;;;4989215;28;20219;-82
2024/01/19 02:38:43;;;;;;;10.03;8.00;;;;;;;;;;4969046;28;20274;-87
2024/01/19 02:41:11;;;;;;;10.07;4.70;;;;;;;;;;4962862;28;20221;-85
2024/01/19 02:43:37;;;;;;;4.60;3.20;;;;;;;;;;4955867;28;20225;-86
2024/01/19 02:46:04;;;;;;;5.13;2.77;;;;;;;;;;4950608;28;20214;-85
2024/01/19 02:48:30;;;;;;;4.40;2.70;;;;;;;;;;4952874;28;20229;-87
2024/01/19 02:50:57;;;;;;;3.60;2.97;;;;;;;;;;4958706;28;20237;-88
2024/01/19 02:53:23;;;;;;;4.13;2.80;;;;;;;;;;4968469;28;20303;-87
2024/01/19 02:55:48;;;;;;;2.97;2.23;;;;;;;;;;4975565;28;21002;-87
2024/01/19 02:58:17;;;;;;;3.90;2.60;;;;;;;;;;4937968;28;20230;-84
2024/01/19 03:00:42;;;;;;;2.43;2.13;;;;;;;;;;4964143;28;20269;-86
2024/01/19 03:03:10;;;;;;;4.40;2.40;;;;;;;;;;4960007;28;20226;-86
2024/01/19 03:05:36;;;;;;;2.77;2.20;;;;;;;;;;4942289;28;20617;-88
2024/01/19 03:08:03;;;;;;;3.10;2.17;;;;;;;;;;4949663;28;20232;-85
2024/01/19 03:10:31;;;;;;;4.57;2.30;;;;;;;;;;4954570;28;20222;-87
2024/01/19 03:12:59;;;;;;;9.37;2.80;;;;;;;;;;4955186;28;20245;-88
2024/01/19 03:15:28;;;;;;;5.27;2.53;;;;;;;;;;4957914;28;20222;-84
2024/01/19 03:17:53;;;;;;;3.03;2.33;;;;;;;;;;4973145;28;20258;-85
2024/01/19 03:20:19;;;;;;;5.07;2.30;;;;;;;;;;4943144;28;20230;-88
2024/01/19 03:22:44;;;;;;;5.60;2.30;;;;;;;;;;4964960;28;20273;-86
2024/01/19 03:25:12;;;;;;;2.97;1.90;;;;;;;;;;4965711;28;20217;-87
2024/01/19 03:27:40;;;;;;;5.97;2.63;;;;;;;;;;4940828;28;20248;-87
2024/01/19 03:30:10;;;;;;;5.57;2.37;;;;;;;;;;4959921;28;20229;-86
2024/01/19 03:32:38;;;;;;;2.43;2.23;;;;;;;;;;4958158;28;20234;-84
2024/01/19 03:35:06;;;;;;;5.33;2.50;;;;;;;;;;4926968;28;20270;-85
2024/01/19 03:37:34;;;;;;;4.00;2.20;;;;;;;;;;4940829;28;20233;-85
2024/01/19 03:39:59;;;;;;;5.43;2.27;;;;;;;;;;4975729;28;20227;-88
2024/01/19 03:42:28;;;;;;;2.90;2.30;;;;;;;;;;4960686;28;20620;-85
2024/01/19 03:44:53;;;;;;;4.40;2.10;;;;;;;;;;4975237;28;20215;-86
2024/01/19 03:47:21;;;;;;;2.97;2.00;;;;;;;;;;4960495;28;20226;-87
2024/01/19 03:49:49;;;;;;;3.40;2.13;;;;;;;;;;4957532;28;20818;-85
2024/01/19 03:52:16;;;;;;;4.23;2.50;;;;;;;;;;4944196;28;20226;-86
2024/01/19 03:54:41;;;;;;;7.67;2.30;;;;;;;;;;4956626;28;20286;-84
2024/01/19 03:57:09;;;;;;;6.57;2.47;;;;;;;;;;4947851;28;20221;-88
2024/01/19 04:03:24;;;;;;;4.30;2.83;;;;;;;;;;4981880;28;20272;-85
2024/01/19 04:05:50;;;;;;;5.13;2.40;;;;;;;;;;4929938;29;20599;-86
2024/01/19 04:08:15;;;;;;;6.13;2.20;;;;;;;;;;4951326;28;20298;-86
2024/01/19 04:10:41;;;;;;;6.70;2.60;;;;;;;;;;4979040;28;20226;-84
2024/01/19 04:13:07;;;;;;;4.90;4.20;;;;;;;;;;4974295;28;20268;-87
2024/01/19 04:15:33;;;;;;;6.60;3.40;;;;;;;;;;4953540;28;20226;-85
2024/01/19 04:17:59;;;;;;;4.07;3.50;;;;;;;;;;4954099;28;20785;-85
2024/01/19 04:20:27;;;;;;;5.33;3.90;;;;;;;;;;4963164;28;20227;-85
2024/01/19 04:22:55;;;;;;;5.73;3.47;;;;;;;;;;4954188;28;20635;-85
2024/01/19 04:25:24;;;;;;;7.37;2.60;;;;;;;;;;4958169;28;20218;-85
2024/01/19 04:27:51;;;;;;;4.70;2.57;;;;;;;;;;4957238;28;20237;-85
2024/01/19 04:30:16;;;;;;;6.57;2.57;;;;;;;;;;4958035;28;20257;-82
2024/01/19 04:32:42;;;;;;;2.40;2.20;;;;;;;;;;4956247;28;20222;-83
2024/01/19 04:35:11;;;;;;;4.33;2.53;;;;;;;;;;4964419;28;20227;-85
2024/01/19 04:37:36;;;;;;;7.60;2.70;;;;;;;;;;4954956;28;20237;-83
2024/01/19 04:40:02;;;;;;;4.30;2.10;;;;;;;;;;4961059;28;20216;-86
2024/01/19 04:42:28;;;;;;;4.27;2.27;;;;;;;;;;4966434;28;20305;-84
2024/01/19 04:44:53;;;;;;;5.00;2.30;;;;;;;;;;4949697;28;20249;-86
2024/01/19 04:47:21;;;;;;;4.00;2.50;;;;;;;;;;4952091;28;20242;-86
2024/01/19 04:49:50;;;;;;;4.03;2.53;;;;;;;;;;4945946;28;20241;-85
2024/01/19 04:52:20;;;;;;;4.87;1.93;;;;;;;;;;4972741;28;20223;-78
2024/01/19 04:54:48;;;;;;;5.23;2.07;;;;;;;;;;4990098;28;20230;-76
2024/01/19 04:57:14;;;;;;;3.53;1.87;;;;;;;;;;4971798;28;20277;-78
2024/01/19 04:59:39;;;;;;;4.10;2.20;;;;;;;;;;4974059;28;20238;-77
2024/01/19 05:02:05;;;;;;;3.97;1.83;;;;;;;;;;4950625;28;20241;-76
2024/01/19 05:04:30;;;;;;;1.70;1.60;;;;;;;;;;4958142;28;20228;-77
2024/01/19 05:06:56;;;;;;;3.27;1.57;;;;;;;;;;4966735;28;20214;-77
2024/01/19 05:09:21;;;;;;;1.57;1.40;;;;;;;;;;4974441;28;20225;-78
2024/01/19 05:11:52;;;;;;;2.90;1.63;;;;;;;;;;4976662;28;20226;-77
2024/01/19 05:14:18;;;;;;;3.43;1.80;;;;;;;;;;4962890;28;20592;-77
2024/01/19 05:16:48;;;;;;;3.53;1.57;;;;;;;;;;4939106;28;20269;-77
2024/01/19 05:19:14;;;;;;;2.70;1.57;;;;;;;;;;4972549;28;20303;-77
2024/01/19 05:21:41;;;;;;;1.93;1.57;;;;;;;;;;4956351;28;20226;-76
2024/01/19 05:24:09;;;;;;;1.93;1.60;;;;;;;;;;4970775;28;20573;-80
2024/01/19 05:26:37;;;;;;;3.07;1.70;;;;;;;;;;4988251;28;20244;-77
2024/01/19 05:29:02;;;;;;;2.77;1.67;;;;;;;;;;4990295;28;20289;-76
2024/01/19 05:31:28;;;;;;;1.83;1.40;;;;;;;;;;4955215;28;20222;-77
2024/01/19 05:33:54;;;;;;;3.57;1.60;;;;;;;;;;4950798;28;20575;-76
2024/01/19 05:36:23;;;;;;;2.40;1.60;;;;;;;;;;4971899;28;20230;-77
2024/01/19 05:38:49;;;;;;;4.73;1.70;;;;;;;;;;4944866;28;20252;-76
2024/01/19 05:41:19;;;;;;;3.10;1.47;;;;;;;;;;4969937;28;20222;-76
2024/01/19 05:43:47;;;;;;;3.07;1.63;;;;;;;;;;4944112;28;20647;-76
2024/01/19 05:46:13;;;;;;;3.33;1.73;;;;;;;;;;4935106;28;20226;-77
2024/01/19 05:48:41;;;;;;;2.73;1.57;;;;;;;;;;4988995;28;20230;-77
2024/01/19 05:51:13;;;;;;;4.60;1.80;;;;;;;;;;4978033;28;20230;-77
2024/01/19 05:53:41;;;;;;;4.70;1.80;;;;;;;;;;4971403;28;20853;-77
2024/01/19 05:56:07;;;;;;;3.77;2.03;;;;;;;;;;4974093;28;20269;-77
2024/01/19 05:58:32;;;;;;;3.73;2.90;;;;;;;;;;4963550;28;20309;-77
2024/01/19 06:00:58;;;;;;;3.47;2.03;;;;;;;;;;4973561;28;20229;-77
2024/01/19 06:03:26;;;;;;;3.80;1.97;;;;;;;;;;4975658;28;20260;-76
2024/01/19 06:05:53;;;;;;;3.10;1.73;;;;;;;;;;4970996;28;20229;-78
2024/01/19 06:08:22;;;;;;;2.67;2.20;;;;;;;;;;4956045;28;20293;-78
2024/01/19 06:10:47;;;;;;;3.40;1.90;;;;;;;;;;4970966;28;20222;-77
2024/01/19 06:13:13;;;;;;;5.40;2.17;;;;;;;;;;4968026;28;20289;-77
2024/01/19 06:15:39;;;;;;;5.00;4.60;;;;;;;;;;4971126;28;20444;-77
2024/01/19 06:18:04;;;;;;;3.13;2.37;;;;;;;;;;4956439;28;20981;-78
2024/01/19 06:20:30;;;;;;;4.80;2.20;;;;;;;;;;4971515;28;20244;-77
2024/01/19 06:22:55;;;;;;;3.20;2.50;;;;;;;;;;4970964;28;20253;-78
2024/01/19 06:25:23;;;;;;;2.27;1.93;;;;;;;;;;4989754;28;20226;-78
2024/01/19 06:27:51;;;;;;;3.33;2.67;;;;;;;;;;4973727;28;20226;-75
2024/01/19 06:30:16;;;;;;;5.13;2.87;;;;;;;;;;4954889;28;20313;-78
2024/01/19 06:32:42;;;;;;;9.73;2.50;;;;;;;;;;4972308;28;20281;-77
2024/01/19 06:35:08;;;;;;;3.47;2.50;;;;;;;;;;4964580;28;20996;-77
2024/01/19 06:37:37;;;;;;;4.17;2.43;;;;;;;;;;4942709;28;20306;-78
2024/01/19 06:40:07;;;;;;;4.80;2.97;;;;;;;;;;4956932;28;20229;-77
2024/01/19 06:42:35;;;;;;;6.37;2.23;;;;;;;;;;4981908;28;20230;-78
2024/01/19 06:45:00;;;;;;;2.43;2.23;;;;;;;;;;4944017;28;20659;-78
2024/01/19 06:47:26;;;;;;;3.90;2.70;;;;;;;;;;4955491;28;20236;-77
2024/01/19 06:49:52;;;;;;;3.13;2.53;;;;;;;;;;4973967;28;20230;-77
2024/01/19 06:52:23;;;;;;;4.53;2.50;;;;;;;;;;4973324;28;20221;-77
2024/01/19 06:54:51;;;;;;;3.30;2.40;;;;;;;;;;4975466;28;20703;-78
2024/01/19 06:57:16;;;;;;;4.30;2.80;;;;;;;;;;4950227;28;20226;-77
2024/01/19 06:59:42;;;;;;;2.87;2.57;;;;;;;;;;4974081;28;20276;-78
2024/01/19 07:02:11;;;;;;;4.90;3.17;;;;;;;;;;4961190;28;20214;-78
2024/01/19 07:04:36;;;;;;;3.63;3.00;;;;;;;;;;4969290;28;20230;-78
2024/01/19 07:07:04;;;;;;;3.57;2.50;;;;;;;;;;4931768;28;20492;-78
2024/01/19 07:09:34;;;;;;;2.93;2.50;;;;;;;;;;4969675;28;20699;-77
2024/01/19 07:12:00;;;;;;;2.63;2.43;;;;;;;;;;4986344;28;20376;-78
2024/01/19 07:14:27;;;;;;;3.17;2.57;;;;;;;;;;4972558;28;20220;-78
2024/01/19 07:16:53;;;;;;;2.70;2.50;;;;;;;;;;4972014;28;20238;-78
2024/01/19 07:19:18;;;;;;;4.23;2.97;;;;;;;;;;4971663;28;20222;-78
2024/01/19 07:21:44;;;;;;;3.80;3.10;;;;;;;;;;4968989;28;20696;-78
2024/01/19 07:24:10;;;;;;;4.67;2.77;;;;;;;;;;4954047;28;20224;-78
2024/01/19 07:26:38;;;;;;;3.50;3.00;;;;;;;;;;4972463;28;20230;-77
2024/01/19 07:29:07;;;;;;;3.37;3.07;;;;;;;;;;4959531;28;20245;-78
2024/01/19 07:31:33;;;;;;;3.53;3.03;;;;;;;;;;4932115;28;20237;-80
2024/01/19 07:34:03;;;;;;;4.27;3.80;;;;;;;;;;4944731;28;20254;-79
2024/01/19 07:36:31;;;;;;;7.10;3.93;;;;;;;;;;4974852;28;20230;-77
2024/01/19 07:38:57;;;;;;;6.80;3.97;;;;;;;;;;4957503;28;20230;-78
2024/01/19 07:41:23;;;;;;;4.17;3.20;;;;;;;;;;4965119;28;20230;-79
2024/01/19 07:43:48;;;;;;;3.13;2.73;;;;;;;;;;4988814;28;20222;-78
2024/01/19 07:46:14;;;;;;;3.50;3.20;;;;;;;;;;4988232;28;20222;-77
2024/01/19 07:48:40;;;;;;;6.20;3.00;;;;;;;;;;4956823;28;20236;-77
2024/01/19 07:51:06;;;;;;;3.93;2.80;;;;;;;;;;4959595;28;20305;-76
2024/01/19 07:53:31;;;;;;;5.43;3.67;;;;;;;;;;4982486;28;20222;-78
2024/01/19 07:56:00;;;;;;;3.83;3.10;;;;;;;;;;4957676;28;20234;-78
2024/01/19 07:58:26;;;;;;;3.80;3.30;;;;;;;;;;4934199;28;20328;-77
2024/01/19 08:00:51;;;;;;;5.20;3.47;;;;;;;;;;4954823;28;20321;-78
2024/01/19 08:03:17;;;;;;;6.07;3.10;;;;;;;;;;4951045;28;20786;-77
2024/01/19 08:05:43;;;;;;;4.63;2.83;;;;;;;;;;4989394;28;20313;-78
2024/01/19 08:08:08;;;;;;;5.20;3.13;;;;;;;;;;4963793;28;20230;-77
2024/01/19 08:10:37;;;;;;;4.73;3.17;;;;;;;;;;4952577;28;20226;-78
2024/01/19 08:13:03;;;;;;;4.27;3.37;;;;;;;;;;4955185;28;20268;-76
2024/01/19 08:15:28;;;;;;;8.20;4.43;;;;;;;;;;4952728;28;20656;-78
2024/01/19 08:17:56;;;;;;;6.77;3.70;;;;;;;;;;4965923;28;20230;-76
2024/01/19 08:20:22;;;;;;;7.87;3.33;;;;;;;;;;4982965;28;20226;-76
2024/01/19 08:22:50;;;;;;;3.73;3.20;;;;;;;;;;4968318;28;20260;-77
2024/01/19 08:25:16;;;;;;;4.40;3.40;;;;;;;;;;4919055;28;20218;-76
2024/01/19 08:27:44;;;;;;;7.50;4.07;;;;;;;;;;4955577;28;20234;-77
2024/01/19 08:30:10;;;;;;;5.73;3.40;;;;;;;;;;4970319;28;20230;-78
2024/01/19 08:32:36;;;;;;;5.20;3.70;;;;;;;;;;4930174;28;20324;-78
2024/01/19 08:35:08;;;;;;;4.33;3.60;;;;;;;;;;4973142;28;20320;-78
2024/01/19 08:37:36;;;;;;;5.33;3.40;;;;;;;;;;4950153;28;20695;-77
2024/01/19 08:40:07;;;;;;;6.60;3.30;;;;;;;;;;4940397;28;20277;-77
2024/01/19 08:42:33;;;;;;;3.93;3.33;;;;;;;;;;4960148;28;20222;-77
2024/01/19 08:44:58;;;;;;;5.50;3.23;;;;;;;;;;4953664;28;20604;-78
2024/01/19 08:47:26;;;;;;;4.33;2.90;;;;;;;;;;4960882;28;20281;-77
2024/01/19 08:49:52;;;;;;;4.53;3.37;;;;;;;;;;4954979;28;20714;-77
2024/01/19 08:52:20;;;;;;;5.37;3.90;;;;;;;;;;4961699;28;20222;-77
2024/01/19 08:54:48;;;;;;;6.10;3.10;;;;;;;;;;4939848;28;20256;-76
2024/01/19 08:57:15;;;;;;;4.47;3.43;;;;;;;;;;4986581;28;20236;-78
2024/01/19 08:59:45;;;;;;;3.70;3.00;;;;;;;;;;4972050;28;20226;-77
2024/01/19 09:02:11;;;;;;;5.07;3.30;;;;;;;;;;4972359;28;20218;-77
2024/01/19 09:04:38;;;;;;;5.93;3.40;;;;;;;;;;4953858;28;20765;-77
2024/01/19 09:07:04;;;;;;;4.00;2.73;;;;;;;;;;4966678;28;20229;-77
2024/01/19 09:09:31;;;;;;;3.00;2.67;;;;;;;;;;4943063;28;20230;-77
2024/01/19 09:11:57;;;;;;;5.17;3.47;;;;;;;;;;4957817;28;20766;-77
2024/01/19 09:14:23;;;;;;;4.83;3.03;;;;;;;;;;4955662;28;20313;-78
2024/01/19 09:16:49;;;;;;;7.07;3.07;;;;;;;;;;4943574;28;20233;-77
2024/01/19 09:19:15;;;;;;;4.20;3.07;;;;;;;;;;4962728;28;20230;-79
2024/01/19 09:21:45;;;;;;;4.47;2.80;;;;;;;;;;4975373;28;20242;-77
2024/01/19 09:24:13;;;;;;;5.50;3.23;;;;;;;;;;4957183;28;20235;-78
2024/01/19 09:26:41;;;;;;;4.00;2.70;;;;;;;;;;4959445;28;20711;-77
2024/01/19 09:29:10;;;;;;;4.37;3.00;;;;;;;;;;4973107;28;20269;-76
2024/01/19 09:31:42;;;;;;;3.50;3.20;;;;;;;;;;4968974;28;20226;-77
2024/01/19 09:34:08;;;;;;;3.83;2.90;;;;;;;;;;4958716;28;20262;-78
2024/01/19 09:36:34;;;;;;;5.97;3.07;;;;;;;;;;4974250;28;20222;-77
2024/01/19 09:38:59;;;;;;;4.83;2.83;;;;;;;;;;4944594;28;20703;-78
2024/01/19 09:41:32;;;;;;;4.90;2.83;;;;;;;;;;4958379;28;20225;-78
2024/01/19 09:44:00;;;;;;;6.37;2.67;;;;;;;;;;4975405;28;20261;-76
2024/01/19 09:46:28;;;;;;;4.67;2.50;;;;;;;;;;4952085;28;20246;-77
2024/01/19 09:49:13;;;;;;;5.07;2.80;;;;;;;;;;4975264;28;20289;-78
2024/01/19 09:51:50;;;;;;;3.90;2.70;;;;;;;;;;4975209;28;20230;-78
2024/01/19 09:54:21;;;;;;;3.87;2.57;;;;;;;;;;4970210;28;20766;-78
2024/01/19 09:56:49;;;;;;;5.40;2.80;;;;;;;;;;4957762;28;20979;-79
2024/01/19 09:59:17;;;;;;;3.50;2.70;;;;;;;;;;4952062;28;20234;-77
2024/01/19 10:01:44;;;;;;;3.67;2.33;;;;;;;;;;4953471;28;20234;-78
2024/01/19 10:04:15;;;;;;;6.40;3.00;;;;;;;;;;4960457;28;20221;-77
2024/01/19 10:06:42;;;;;;;5.13;2.90;;;;;;;;;;4958591;28;20309;-76
2024/01/19 10:09:07;;;;;;;8.03;2.73;;;;;;;;;;4950642;28;20254;-78
2024/01/19 10:11:35;;;;;;;5.53;2.60;;;;;;;;;;4933041;28;20256;-79
2024/01/19 10:14:03;;;;;;;5.03;2.80;;;;;;;;;;4967883;28;20249;-77
2024/01/19 10:16:33;;;;;;;4.90;3.03;;;;;;;;;;4947429;28;20237;-77
2024/01/19 10:19:01;;;;;;;14.60;3.87;;;;;;;;;;4972272;28;20257;-77
2024/01/19 10:21:31;;;;;;;3.37;2.83;;;;;;;;;;4954706;28;20289;-78
2024/01/19 10:24:09;;;;;;;6.80;2.87;;;;;;;;;;4956471;28;20236;-79
2024/01/19 10:26:37;;;;;;;5.57;3.20;;;;;;;;;;4977007;28;20241;-78
2024/01/19 10:29:15;;;;;;;3.50;2.70;;;;;;;;;;4973372;28;20313;-78
2024/01/19 10:31:41;;;;;;;4.00;2.80;;;;;;;;;;4943374;28;20678;-80
2024/01/19 10:34:17;;;;;;;6.10;3.03;;;;;;;;;;4985004;28;20265;-79
2024/01/19 10:36:44;;;;;;;5.07;3.37;;;;;;;;;;4944824;28;21123;-78
2024/01/19 10:39:15;;;;;;;4.73;3.23;;;;;;;;;;4967621;28;20238;-79
2024/01/19 10:41:43;;;;;;;5.03;3.20;;;;;;;;;;4992221;28;20239;-78
2024/01/19 10:44:20;;;;;;;7.17;3.70;;;;;;;;;;4960363;28;20745;-78
2024/01/19 10:46:50;;;;;;;3.77;3.43;;;;;;;;;;4954829;28;20233;-79
2024/01/19 10:49:16;;;;;;;5.67;3.97;;;;;;;;;;4972237;28;20289;-79
2024/01/19 10:51:44;;;;;;;4.40;3.30;;;;;;;;;;4958704;28;20305;-79
2024/01/19 10:54:17;;;;;;;6.13;3.47;;;;;;;;;;4983294;28;20253;-78
2024/01/19 10:56:44;;;;;;;4.43;3.00;;;;;;;;;;4979533;28;20234;-79
2024/01/19 10:59:13;;;;;;;5.33;3.33;;;;;;;;;;4968296;28;20230;-78
2024/01/19 11:01:42;;;;;;;5.00;3.50;;;;;;;;;;4949545;28;20314;-78
2024/01/19 11:04:08;;;;;;;5.80;4.23;;;;;;;;;;4948729;28;20301;-79
2024/01/19 11:06:38;;;;;;;5.73;3.97;;;;;;;;;;4955422;28;20228;-78
2024/01/19 11:09:06;;;;;;;6.67;4.10;;;;;;;;;;4959725;28;20233;-79
2024/01/19 11:11:53;;;;;;;7.93;4.10;;;;;;;;;;4960106;28;20360;-80
2024/01/19 11:14:18;;;;;;;7.53;4.33;;;;;;;;;;4958866;28;20238;-80
2024/01/19 11:16:46;;;;;;;10.47;7.20;;;;;;;;;;4959081;28;20225;-79
2024/01/19 11:19:12;;;;;;;10.03;3.50;;;;;;;;;;4950280;28;20230;-80
2024/01/19 11:21:39;;;;;;;5.97;4.20;;;;;;;;;;4990611;28;20755;-78
2024/01/19 11:24:05;;;;;;;7.33;4.40;;;;;;;;;;4972289;28;20230;-79
2024/01/19 11:26:42;;;;;;;8.70;3.67;;;;;;;;;;4974087;28;20256;-78
2024/01/19 11:29:28;;;;;;;9.33;4.03;;;;;;;;;;4973313;28;20226;-77
2024/01/19 11:31:59;;;;;;;8.17;4.00;;;;;;;;;;4978275;28;20272;-77
2024/01/19 11:34:45;;;;;;;7.77;3.97;;;;;;;;;;4978590;28;20222;-78
2024/01/19 11:37:44;;;;;;;9.00;4.67;;;;;;;;;;4978780;28;20234;-77
2024/01/19 11:40:24;;;;;;;7.53;4.43;;;;;;;;;;4981878;28;20259;-78
2024/01/19 11:42:50;;;;;;;5.80;3.20;;;;;;;;;;4961303;28;20225;-78
2024/01/19 11:45:26;;;;;;;4.40;3.53;;;;;;;;;;4960659;28;20362;-88
2024/01/19 11:47:55;;;;;;;6.53;3.80;;;;;;;;;;4986981;28;20222;-85
2024/01/19 11:50:59;;;;;;;8.77;3.40;;;;;;;;;;4947422;28;20226;-87
2024/01/19 11:53:25;;;;;;;6.97;3.00;;;;;;;;;;4910242;29;20239;-85
2024/01/19 11:55:51;;;;;;;3.93;3.27;;;;;;;;;;4882126;29;20231;-85
2024/01/19 11:58:25;;;;;;;8.07;3.80;;;;;;;;;;4921196;28;20233;-85
2024/01/19 12:00:52;;;;;;;7.83;3.27;;;;;;;;;;4985246;28;20242;-88
2024/01/19 12:03:23;;;;;;;4.97;2.60;;;;;;;;;;4953704;28;20213;-87
2024/01/19 12:05:49;;;;;;;5.93;3.57;;;;;;;;;;4932395;28;20227;-86
2024/01/19 12:08:14;;;;;;;4.67;2.97;;;;;;;;;;4941817;28;20213;-88
2024/01/19 12:10:45;;;;;;;6.17;3.00;;;;;;;;;;4958897;28;20313;-86
2024/01/19 12:13:14;;;;;;;7.80;3.27;;;;;;;;;;4978036;28;20234;-87
2024/01/19 12:15:43;;;;;;;6.67;2.77;;;;;;;;;;4945169;28;20225;-87
2024/01/19 12:18:11;;;;;;;3.87;2.77;;;;;;;;;;4930688;28;20234;-86
2024/01/19 12:20:41;;;;;;;7.80;3.17;;;;;;;;;;4971329;28;20233;-88
2024/01/19 12:23:09;;;;;;;5.57;3.13;;;;;;;;;;4944207;28;20218;-87
2024/01/19 12:25:38;;;;;;;4.60;2.87;;;;;;;;;;4941333;28;20225;-88
2024/01/19 12:28:07;;;;;;;7.70;3.70;;;;;;;;;;4962808;28;20372;-87
2024/01/19 12:30:36;;;;;;;6.97;4.40;;;;;;;;;;4964316;28;20230;-89
2024/01/19 12:33:21;;;;;;;6.67;3.90;;;;;;;;;;4958584;28;20323;-88
2024/01/19 12:35:47;;;;;;;9.33;3.33;;;;;;;;;;4947446;28;20233;-88
2024/01/19 12:38:15;;;;;;;15.97;10.83;;;;;;;;;;4959727;28;20310;-87
2024/01/19 12:40:41;;;;;;;8.20;2.90;;;;;;;;;;4992507;28;20229;-86
2024/01/19 12:43:07;;;;;;;8.17;3.20;;;;;;;;;;4933144;28;20220;-88
2024/01/19 12:45:34;;;;;;;4.30;3.20;;;;;;;;;;4958251;28;20237;-87
2024/01/19 12:48:00;;;;;;;5.73;3.07;;;;;;;;;;4958439;28;20229;-90
2024/01/19 12:50:28;;;;;;;7.73;3.47;;;;;;;;;;4964504;28;20230;-87
2024/01/19 12:52:56;;;;;;;4.73;2.83;;;;;;;;;;4943098;28;20680;-90
2024/01/19 12:55:31;;;;;;;5.57;2.57;;;;;;;;;;4959418;28;20223;-87
2024/01/19 12:57:59;;;;;;;7.80;3.10;;;;;;;;;;4956468;28;20678;-90
2024/01/19 13:00:28;;;;;;;5.00;3.33;;;;;;;;;;4955690;28;20309;-86
2024/01/19 13:02:54;;;;;;;4.17;2.60;;;;;;;;;;4967903;28;20298;-87
2024/01/19 13:05:21;;;;;;;6.43;2.70;;;;;;;;;;4970987;28;20305;-88
2024/01/19 13:07:49;;;;;;;9.13;3.10;;;;;;;;;;4946911;28;20230;-87
2024/01/19 13:10:18;;;;;;;5.80;2.67;;;;;;;;;;4952738;28;20369;-85
2024/01/19 13:13:14;;;;;;;6.37;2.90;;;;;;;;;;4965686;28;20234;-90
2024/01/19 13:15:40;;;;;;;4.83;2.50;;;;;;;;;;4956849;28;20302;-89
2024/01/19 13:18:13;;;;;;;8.67;2.97;;;;;;;;;;4954591;28;20846;-88
2024/01/19 13:20:39;;;;;;;4.97;2.60;;;;;;;;;;4962467;28;20249;-87
2024/01/19 13:23:10;;;;;;;5.67;2.60;;;;;;;;;;4960966;28;20233;-86
2024/01/19 13:25:40;;;;;;;5.43;2.50;;;;;;;;;;4973435;28;20244;-89
2024/01/19 13:28:07;;;;;;;7.83;3.23;;;;;;;;;;4947694;28;20218;-89
2024/01/19 13:30:32;;;;;;;4.53;2.23;;;;;;;;;;4961792;28;20699;-87
2024/01/19 13:33:00;;;;;;;4.57;2.10;;;;;;;;;;4974535;28;20230;-84
2024/01/19 13:35:26;;;;;;;3.63;2.40;;;;;;;;;;4976420;28;20234;-88
2024/01/19 13:37:52;;;;;;;5.17;2.47;;;;;;;;;;4962766;28;20281;-87
2024/01/19 13:40:22;;;;;;;8.80;3.00;;;;;;;;;;4944511;28;20219;-82
2024/01/19 13:42:47;;;;;;;6.40;2.10;;;;;;;;;;4938227;28;20726;-87
2024/01/19 13:45:16;;;;;;;6.53;2.90;;;;;;;;;;4966463;28;20281;-90
2024/01/19 13:47:42;;;;;;;8.13;2.83;;;;;;;;;;4969314;28;20222;-88
2024/01/19 13:50:10;;;;;;;7.27;2.40;;;;;;;;;;4948343;28;20264;-90
2024/01/19 13:52:38;;;;;;;6.27;2.00;;;;;;;;;;4955418;28;20236;-89
2024/01/19 13:55:04;;;;;;;6.93;1.97;;;;;;;;;;4951256;28;20246;-89
2024/01/19 13:57:30;;;;;;;4.13;2.30;;;;;;;;;;4959339;28;20289;-90
2024/01/19 13:59:58;;;;;;;5.53;2.10;;;;;;;;;;4953710;28;20309;-91
2024/01/19 14:02:27;;;;;;;8.47;2.53;;;;;;;;;;4957654;28;20221;-88
2024/01/19 14:04:53;;;;;;;6.27;2.40;;;;;;;;;;4952446;28;20333;-88
2024/01/19 14:07:21;;;;;;;7.63;2.00;;;;;;;;;;4962972;28;20288;-88
2024/01/19 14:09:47;;;;;;;3.97;1.93;;;;;;;;;;4989414;28;20232;-88
2024/01/19 14:12:13;;;;;;;7.03;2.47;;;;;;;;;;4932983;28;20239;-89
2024/01/19 14:14:43;;;;;;;7.00;2.33;;;;;;;;;;4957383;28;20230;-89
2024/01/19 14:17:14;;;;;;;6.13;2.33;;;;;;;;;;4958278;28;20230;-78
2024/01/19 14:19:40;;;;;;;6.93;2.90;;;;;;;;;;4989824;28;20234;-78
2024/01/19 14:22:05;;;;;;;5.83;2.50;;;;;;;;;;4958191;28;20228;-77
2024/01/19 14:24:31;;;;;;;8.00;2.17;;;;;;;;;;4973125;28;20229;-77
2024/01/19 14:26:56;;;;;;;6.23;2.60;;;;;;;;;;4975231;28;20214;-78
2024/01/19 14:29:22;;;;;;;7.13;2.13;;;;;;;;;;4975474;28;21442;-79
2024/01/19 14:31:47;;;;;;;4.00;2.10;;;;;;;;;;4959069;28;20221;-80
2024/01/19 14:34:16;;;;;;;5.40;1.90;;;;;;;;;;4963013;28;20221;-78
2024/01/19 14:36:47;;;;;;;4.33;1.80;;;;;;;;;;4957394;28;20222;-81
2024/01/19 14:39:15;;;;;;;5.70;1.77;;;;;;;;;;4958284;28;20237;-77
2024/01/19 14:41:43;;;;;;;6.20;2.87;;;;;;;;;;4967629;28;20221;-77
2024/01/19 14:44:08;;;;;;;7.57;2.50;;;;;;;;;;4975618;28;20258;-78
2024/01/19 14:46:34;;;;;;;5.87;2.30;;;;;;;;;;4974950;28;20241;-79
2024/01/19 14:49:04;;;;;;;5.10;2.43;;;;;;;;;;4971300;28;20221;-78